Time;durP1;ratioP1;P1;durP2;ratioP2;P2;SDS_P1;SDS_P2;PMS_P1;PMS_P2;Temp;Humidity;BMP_temperature;BMP_pressure;BME280_temperature;BME280_humidity;BME280_pressure;Samples;Min_cycle;Max_cycle;Signal;HPM_P1;HPM_P2
2023/05/25 00:03:02;;;;;;;6.27;3.37;;;;;;;;;;5039156;28;20564;-68
2023/05/25 00:06:06;;;;;;;6.53;3.60;;;;;;;;;;5039666;28;20181;-69
2023/05/25 00:09:11;;;;;;;9.90;4.30;;;;;;;;;;5027132;28;20181;-70
2023/05/25 00:12:15;;;;;;;12.10;4.10;;;;;;;;;;5026958;28;20228;-68
2023/05/25 00:15:19;;;;;;;7.53;3.70;;;;;;;;;;5035841;28;20204;-68
2023/05/25 00:18:26;;;;;;;7.60;3.77;;;;;;;;;;5024002;28;20181;-68
2023/05/25 00:21:33;;;;;;;9.07;4.33;;;;;;;;;;5036043;28;20177;-68
2023/05/25 00:24:38;;;;;;;10.30;3.87;;;;;;;;;;5036243;28;20181;-68
2023/05/25 00:27:42;;;;;;;8.37;4.23;;;;;;;;;;5036173;28;20642;-68
2023/05/25 00:30:46;;;;;;;10.70;4.20;;;;;;;;;;5023536;28;20632;-69
2023/05/25 00:33:50;;;;;;;8.70;3.57;;;;;;;;;;5035443;28;20235;-69
2023/05/25 00:36:54;;;;;;;8.40;3.77;;;;;;;;;;5035530;28;20176;-69
2023/05/25 00:39:57;;;;;;;10.00;4.47;;;;;;;;;;5023908;28;20181;-70
2023/05/25 00:43:02;;;;;;;8.63;4.43;;;;;;;;;;5035746;28;20225;-69
2023/05/25 00:46:06;;;;;;;9.67;4.50;;;;;;;;;;5023976;28;20185;-70
2023/05/25 00:49:13;;;;;;;9.40;3.77;;;;;;;;;;5023128;28;20197;-70
2023/05/25 00:52:17;;;;;;;9.20;4.50;;;;;;;;;;5023285;28;20216;-70
2023/05/25 00:55:22;;;;;;;8.47;4.33;;;;;;;;;;5023489;28;20184;-70
2023/05/25 00:58:31;;;;;;;10.07;4.50;;;;;;;;;;5035487;28;20173;-70
2023/05/25 01:01:39;;;;;;;8.37;4.40;;;;;;;;;;5022992;28;20199;-70
2023/05/25 01:04:48;;;;;;;13.33;4.50;;;;;;;;;;5023300;28;20188;-70
2023/05/25 01:07:54;;;;;;;10.10;4.63;;;;;;;;;;5027137;28;20551;-70
2023/05/25 01:11:02;;;;;;;9.60;4.57;;;;;;;;;;5038503;28;20192;-69
2023/05/25 01:14:07;;;;;;;8.70;4.47;;;;;;;;;;5026766;28;20687;-69
2023/05/25 01:17:12;;;;;;;10.00;4.33;;;;;;;;;;5039679;28;20180;-69
2023/05/25 01:20:17;;;;;;;11.83;4.97;;;;;;;;;;5039021;28;20652;-70
2023/05/25 01:23:29;;;;;;;9.30;5.20;;;;;;;;;;5025933;28;20204;-69
2023/05/25 01:26:43;;;;;;;9.07;5.23;;;;;;;;;;5025344;28;20177;-70
2023/05/25 01:29:57;;;;;;;13.20;5.10;;;;;;;;;;5037053;28;20525;-70
2023/05/25 01:33:01;;;;;;;10.47;5.70;;;;;;;;;;5024822;28;20237;-70
2023/05/25 01:36:06;;;;;;;8.23;4.70;;;;;;;;;;5012852;28;20185;-69
2023/05/25 01:39:11;;;;;;;12.77;5.20;;;;;;;;;;5023837;28;20173;-70
2023/05/25 01:42:15;;;;;;;9.17;5.37;;;;;;;;;;5023387;28;20667;-70
2023/05/25 01:45:19;;;;;;;9.60;5.47;;;;;;;;;;5024352;28;20185;-69
2023/05/25 01:48:36;;;;;;;9.13;5.43;;;;;;;;;;5023515;28;20177;-69
2023/05/25 01:52:03;;;;;;;11.87;6.10;;;;;;;;;;5023259;28;20185;-69
2023/05/25 01:55:12;;;;;;;11.97;5.10;;;;;;;;;;5011742;28;20558;-70
2023/05/25 01:58:18;;;;;;;19.60;6.43;;;;;;;;;;5022817;28;20173;-70
2023/05/25 02:01:22;;;;;;;12.07;5.80;;;;;;;;;;5011571;28;20659;-69
2023/05/25 02:04:28;;;;;;;9.33;5.80;;;;;;;;;;5022630;28;20563;-70
2023/05/25 02:07:32;;;;;;;8.00;5.23;;;;;;;;;;5010777;28;20181;-70
2023/05/25 02:10:36;;;;;;;9.27;5.83;;;;;;;;;;5022243;28;20177;-70
2023/05/25 02:13:40;;;;;;;8.70;5.13;;;;;;;;;;5021997;28;20592;-69
2023/05/25 02:16:45;;;;;;;9.60;6.10;;;;;;;;;;5022250;28;20181;-70
2023/05/25 02:19:51;;;;;;;11.87;6.00;;;;;;;;;;5010708;28;20189;-70
2023/05/25 02:22:57;;;;;;;11.30;5.27;;;;;;;;;;5034133;28;20216;-69
2023/05/25 02:26:01;;;;;;;12.60;6.07;;;;;;;;;;5033854;28;20683;-70
2023/05/25 02:29:05;;;;;;;9.37;5.40;;;;;;;;;;5033766;28;20176;-70
2023/05/25 02:32:09;;;;;;;12.63;5.57;;;;;;;;;;5010709;28;20581;-69
2023/05/25 02:35:13;;;;;;;11.93;5.17;;;;;;;;;;5022012;28;20177;-70
2023/05/25 02:38:17;;;;;;;13.47;6.13;;;;;;;;;;5020989;28;20184;-70
2023/05/25 02:41:23;;;;;;;8.37;4.80;;;;;;;;;;5033594;28;20188;-70
2023/05/25 02:44:27;;;;;;;10.57;5.90;;;;;;;;;;5021345;28;20177;-70
2023/05/25 02:47:32;;;;;;;12.40;6.50;;;;;;;;;;5022235;28;20183;-70
2023/05/25 02:50:36;;;;;;;8.23;5.70;;;;;;;;;;5021531;28;20590;-69
2023/05/25 02:53:43;;;;;;;9.73;5.80;;;;;;;;;;5010713;28;20228;-70
2023/05/25 02:56:48;;;;;;;9.50;5.93;;;;;;;;;;5021307;28;20177;-69
2023/05/25 02:59:54;;;;;;;8.90;5.73;;;;;;;;;;5021477;28;20172;-70
2023/05/25 03:02:59;;;;;;;8.33;5.57;;;;;;;;;;5033400;28;20216;-69
2023/05/25 03:06:04;;;;;;;12.70;6.03;;;;;;;;;;5021483;28;20180;-70
2023/05/25 03:09:08;;;;;;;10.60;6.07;;;;;;;;;;5021272;28;20188;-70
2023/05/25 03:12:14;;;;;;;9.67;5.63;;;;;;;;;;5010442;28;20706;-69
2023/05/25 03:15:19;;;;;;;11.40;6.40;;;;;;;;;;4998890;28;20192;-70
2023/05/25 03:18:23;;;;;;;11.87;5.73;;;;;;;;;;5010106;28;20208;-70
2023/05/25 03:21:27;;;;;;;8.63;5.60;;;;;;;;;;5021316;28;20651;-70
2023/05/25 03:24:31;;;;;;;11.60;5.80;;;;;;;;;;5021238;28;20177;-70
2023/05/25 03:27:38;;;;;;;11.77;6.10;;;;;;;;;;5010235;28;20189;-70
2023/05/25 03:30:43;;;;;;;15.67;6.20;;;;;;;;;;5021407;28;20650;-70
2023/05/25 03:33:47;;;;;;;11.93;6.17;;;;;;;;;;5020741;28;20224;-69
2023/05/25 03:36:53;;;;;;;10.27;5.93;;;;;;;;;;5020821;28;20192;-69
2023/05/25 03:39:57;;;;;;;12.47;6.23;;;;;;;;;;5021066;28;20188;-70
2023/05/25 03:43:02;;;;;;;11.80;6.43;;;;;;;;;;5020829;28;20216;-69
2023/05/25 03:46:05;;;;;;;13.70;6.43;;;;;;;;;;5021047;28;20651;-70
2023/05/25 03:49:12;;;;;;;10.73;6.00;;;;;;;;;;5035432;28;20215;-70
2023/05/25 03:52:17;;;;;;;10.53;6.17;;;;;;;;;;5024426;28;20232;-69
2023/05/25 03:55:21;;;;;;;12.50;5.90;;;;;;;;;;5024258;28;20227;-70
2023/05/25 03:58:25;;;;;;;13.57;7.17;;;;;;;;;;5024764;28;20681;-70
2023/05/25 04:01:36;;;;;;;13.33;6.43;;;;;;;;;;5013643;28;20543;-70
2023/05/25 04:04:41;;;;;;;12.37;6.40;;;;;;;;;;5024981;28;20188;-70
2023/05/25 04:07:45;;;;;;;11.17;6.27;;;;;;;;;;5024458;28;20183;-70
2023/05/25 04:10:49;;;;;;;9.47;6.13;;;;;;;;;;5024392;28;20644;-70
2023/05/25 04:13:53;;;;;;;11.90;6.00;;;;;;;;;;5012960;28;20220;-69
2023/05/25 04:16:58;;;;;;;11.27;6.33;;;;;;;;;;5013085;28;20177;-70
2023/05/25 04:20:03;;;;;;;11.17;6.43;;;;;;;;;;5023849;28;20682;-70
2023/05/25 04:23:07;;;;;;;12.30;6.27;;;;;;;;;;5012492;28;20703;-70
2023/05/25 04:26:12;;;;;;;13.73;6.60;;;;;;;;;;5024318;28;20185;-70
2023/05/25 04:29:18;;;;;;;12.73;6.20;;;;;;;;;;5023706;28;20213;-70
2023/05/25 04:32:30;;;;;;;12.87;6.17;;;;;;;;;;5023617;28;20230;-69
2023/05/25 04:35:57;;;;;;;11.53;6.50;;;;;;;;;;5035978;28;20186;-70
2023/05/25 04:39:02;;;;;;;11.70;5.90;;;;;;;;;;5023705;28;20185;-69
2023/05/25 04:42:07;;;;;;;10.90;5.23;;;;;;;;;;5012343;28;20280;-69
2023/05/25 04:45:16;;;;;;;10.47;7.00;;;;;;;;;;5023959;28;20181;-70
2023/05/25 04:48:20;;;;;;;11.13;5.43;;;;;;;;;;5023787;28;20540;-70
2023/05/25 04:51:25;;;;;;;10.13;5.90;;;;;;;;;;5038396;22;20243;-74
2023/05/25 04:54:29;;;;;;;12.57;6.33;;;;;;;;;;4992094;28;20224;-74
2023/05/25 04:57:36;;;;;;;13.07;6.80;;;;;;;;;;5014765;28;20181;-74
2023/05/25 05:00:40;;;;;;;8.33;6.17;;;;;;;;;;5002676;28;20180;-74
2023/05/25 05:03:45;;;;;;;13.20;6.97;;;;;;;;;;5003974;28;20220;-74
2023/05/25 05:06:50;;;;;;;11.70;6.20;;;;;;;;;;5014696;28;20190;-73
2023/05/25 05:09:56;;;;;;;12.47;5.83;;;;;;;;;;5003339;28;20192;-74
2023/05/25 05:13:00;;;;;;;13.27;6.03;;;;;;;;;;5003197;28;20217;-74
2023/05/25 05:16:05;;;;;;;14.50;6.40;;;;;;;;;;4992436;28;20205;-74
2023/05/25 05:19:10;;;;;;;11.43;5.93;;;;;;;;;;5002955;28;20204;-74
2023/05/25 05:22:14;;;;;;;18.80;6.80;;;;;;;;;;4991818;28;20224;-73
2023/05/25 05:25:19;;;;;;;10.97;6.37;;;;;;;;;;5014247;28;20621;-74
2023/05/25 05:28:26;;;;;;;12.83;5.93;;;;;;;;;;5002832;28;20212;-74
2023/05/25 05:31:35;;;;;;;10.30;6.77;;;;;;;;;;4991639;28;20184;-74
2023/05/25 05:34:39;;;;;;;9.70;5.50;;;;;;;;;;5003364;28;20206;-73
2023/05/25 05:37:50;;;;;;;11.33;6.10;;;;;;;;;;5000048;28;20205;-72
2023/05/25 05:40:54;;;;;;;12.67;6.67;;;;;;;;;;5003034;28;20193;-74
2023/05/25 05:44:00;;;;;;;19.70;6.83;;;;;;;;;;5002647;28;20189;-74
2023/05/25 05:47:05;;;;;;;14.83;7.57;;;;;;;;;;5014664;28;20189;-74
2023/05/25 05:50:10;;;;;;;11.00;7.30;;;;;;;;;;4991551;28;20612;-73
2023/05/25 05:53:15;;;;;;;17.77;7.60;;;;;;;;;;5002195;28;20232;-74
2023/05/25 05:56:20;;;;;;;16.63;7.10;;;;;;;;;;4991503;28;20187;-74
2023/05/25 05:59:25;;;;;;;11.87;7.03;;;;;;;;;;5002716;28;20661;-72
2023/05/25 06:02:29;;;;;;;16.53;6.43;;;;;;;;;;4990947;28;20220;-73
2023/05/25 06:05:34;;;;;;;15.27;7.47;;;;;;;;;;4991309;28;20178;-74
2023/05/25 06:08:41;;;;;;;13.37;7.20;;;;;;;;;;5001751;28;20227;-75
2023/05/25 06:11:46;;;;;;;20.77;7.37;;;;;;;;;;5002278;28;20200;-73
2023/05/25 06:14:50;;;;;;;13.67;6.80;;;;;;;;;;5002126;28;20274;-73
2023/05/25 06:17:55;;;;;;;37.40;8.00;;;;;;;;;;4971487;28;20286;-73
2023/05/25 06:21:00;;;;;;;10.07;5.70;;;;;;;;;;4982538;28;20186;-74
2023/05/25 06:24:05;;;;;;;16.10;6.97;;;;;;;;;;4982569;28;20182;-74
2023/05/25 06:27:09;;;;;;;10.97;6.40;;;;;;;;;;4982408;28;20189;-73
2023/05/25 06:30:13;;;;;;;11.97;5.93;;;;;;;;;;4982661;28;20189;-73
2023/05/25 06:33:18;;;;;;;11.40;6.20;;;;;;;;;;4971385;28;20716;-73
2023/05/25 06:36:22;;;;;;;12.70;7.37;;;;;;;;;;4971486;28;20174;-73
2023/05/25 06:39:26;;;;;;;10.50;6.73;;;;;;;;;;4971329;28;20182;-73
2023/05/25 06:42:30;;;;;;;10.37;6.23;;;;;;;;;;4971109;28;20715;-73
2023/05/25 06:45:34;;;;;;;11.97;6.57;;;;;;;;;;4982297;28;20675;-73
2023/05/25 06:48:38;;;;;;;15.33;7.10;;;;;;;;;;4982233;28;20199;-73
2023/05/25 06:51:42;;;;;;;9.13;6.60;;;;;;;;;;4981842;28;20688;-73
2023/05/25 06:54:47;;;;;;;11.27;6.57;;;;;;;;;;4993932;28;20218;-73
2023/05/25 06:57:51;;;;;;;16.60;6.60;;;;;;;;;;4982134;28;20197;-73
2023/05/25 07:00:55;;;;;;;11.77;6.50;;;;;;;;;;4994078;28;20186;-73
2023/05/25 07:03:59;;;;;;;7.27;6.37;;;;;;;;;;4982336;28;20644;-73
2023/05/25 07:07:04;;;;;;;11.97;6.67;;;;;;;;;;4982137;28;20182;-73
2023/05/25 07:10:08;;;;;;;24.93;6.33;;;;;;;;;;4982018;28;20182;-73
2023/05/25 07:13:12;;;;;;;9.63;5.07;;;;;;;;;;4993939;28;20742;-73
2023/05/25 07:16:16;;;;;;;13.00;5.57;;;;;;;;;;4982136;28;20210;-73
2023/05/25 07:19:20;;;;;;;9.43;5.13;;;;;;;;;;4981704;28;20174;-73
2023/05/25 07:22:25;;;;;;;9.67;4.80;;;;;;;;;;4993489;28;20214;-73
2023/05/25 07:25:29;;;;;;;10.27;4.80;;;;;;;;;;4985727;28;20198;-73
2023/05/25 07:28:33;;;;;;;11.80;4.83;;;;;;;;;;4985405;28;20205;-74
2023/05/25 07:31:37;;;;;;;12.23;4.90;;;;;;;;;;4985386;28;20208;-74
2023/05/25 07:34:41;;;;;;;20.63;5.60;;;;;;;;;;4997562;28;20210;-74
2023/05/25 07:37:45;;;;;;;13.10;5.07;;;;;;;;;;4996601;28;20182;-74
2023/05/25 07:40:51;;;;;;;10.07;4.57;;;;;;;;;;4997288;28;20189;-73
2023/05/25 07:43:56;;;;;;;10.07;4.80;;;;;;;;;;4963397;28;20707;-74
2023/05/25 07:47:00;;;;;;;14.70;5.10;;;;;;;;;;4997326;28;20202;-73
2023/05/25 07:50:05;;;;;;;9.27;5.10;;;;;;;;;;4997782;28;20209;-74
2023/05/25 07:53:09;;;;;;;8.97;5.27;;;;;;;;;;4985234;28;20217;-74
2023/05/25 07:56:14;;;;;;;8.57;4.97;;;;;;;;;;4997216;28;20538;-73
2023/05/25 07:59:18;;;;;;;8.67;5.03;;;;;;;;;;4963423;28;20182;-74
2023/05/25 08:02:22;;;;;;;9.63;4.80;;;;;;;;;;4997388;28;20222;-74
2023/05/25 08:05:26;;;;;;;7.53;4.97;;;;;;;;;;4985275;28;20201;-74
2023/05/25 08:08:30;;;;;;;8.17;5.50;;;;;;;;;;4996791;28;20186;-73
2023/05/25 08:11:34;;;;;;;11.13;5.90;;;;;;;;;;4996938;28;20625;-74
2023/05/25 08:14:39;;;;;;;9.90;5.50;;;;;;;;;;4996784;28;20688;-74
2023/05/25 08:17:43;;;;;;;9.27;5.03;;;;;;;;;;4996603;28;20186;-73
2023/05/25 08:20:47;;;;;;;12.23;5.07;;;;;;;;;;4996539;28;20182;-74
2023/05/25 08:23:52;;;;;;;10.83;4.90;;;;;;;;;;4984464;28;20244;-73
2023/05/25 08:26:57;;;;;;;11.33;5.40;;;;;;;;;;4996939;28;20185;-74
2023/05/25 08:30:01;;;;;;;9.13;5.10;;;;;;;;;;4996855;28;20189;-74
2023/05/25 08:33:05;;;;;;;12.53;5.13;;;;;;;;;;4996808;28;20554;-74
2023/05/25 08:36:10;;;;;;;7.60;4.80;;;;;;;;;;4972229;28;20217;-74
2023/05/25 08:39:15;;;;;;;7.60;4.97;;;;;;;;;;4996386;28;20641;-74
2023/05/25 08:42:19;;;;;;;8.50;4.63;;;;;;;;;;4996547;28;20218;-74
2023/05/25 08:45:23;;;;;;;11.63;5.23;;;;;;;;;;4996082;28;20194;-74
2023/05/25 08:48:29;;;;;;;8.07;4.73;;;;;;;;;;4996565;28;20193;-74
2023/05/25 08:51:36;;;;;;;9.10;4.70;;;;;;;;;;4983904;28;20210;-74
2023/05/25 08:54:45;;;;;;;7.13;4.33;;;;;;;;;;4995896;28;20178;-73
2023/05/25 08:57:57;;;;;;;8.70;4.57;;;;;;;;;;4996119;28;20174;-73
2023/05/25 09:01:06;;;;;;;9.80;4.77;;;;;;;;;;4996108;28;20179;-73
2023/05/25 09:04:12;;;;;;;7.23;4.53;;;;;;;;;;4984060;28;20186;-74
2023/05/25 09:07:17;;;;;;;8.27;4.50;;;;;;;;;;4983762;28;20174;-73
2023/05/25 09:10:23;;;;;;;9.57;4.67;;;;;;;;;;4996110;28;20182;-73
2023/05/25 09:13:27;;;;;;;10.77;5.50;;;;;;;;;;4995675;28;20225;-73
2023/05/25 09:16:32;;;;;;;9.30;5.17;;;;;;;;;;4983690;28;20215;-74
2023/05/25 09:19:37;;;;;;;10.00;5.17;;;;;;;;;;4995951;28;20182;-73
2023/05/25 09:22:42;;;;;;;12.23;4.83;;;;;;;;;;4983436;28;20584;-73
2023/05/25 09:25:49;;;;;;;7.57;4.20;;;;;;;;;;4983586;28;20565;-73
2023/05/25 09:28:54;;;;;;;6.40;4.60;;;;;;;;;;4995318;28;20179;-73
2023/05/25 09:31:59;;;;;;;5.93;4.00;;;;;;;;;;4983660;28;20550;-74
2023/05/25 09:35:14;;;;;;;8.23;4.10;;;;;;;;;;4995467;28;20206;-74
2023/05/25 09:38:18;;;;;;;9.47;4.90;;;;;;;;;;4994922;28;20542;-74
2023/05/25 09:41:23;;;;;;;7.23;4.07;;;;;;;;;;4995341;28;20186;-73
2023/05/25 09:44:27;;;;;;;7.70;4.43;;;;;;;;;;4983166;28;20687;-73
2023/05/25 09:47:31;;;;;;;10.07;4.40;;;;;;;;;;4994751;28;20196;-73
2023/05/25 09:50:36;;;;;;;9.60;4.13;;;;;;;;;;4994931;28;20183;-74
2023/05/25 09:53:40;;;;;;;11.07;4.17;;;;;;;;;;4995792;28;20218;-73
2023/05/25 09:56:44;;;;;;;25.27;5.00;;;;;;;;;;4983008;28;20221;-73
2023/05/25 09:59:48;;;;;;;11.47;4.57;;;;;;;;;;4983159;28;20191;-73
2023/05/25 10:02:52;;;;;;;8.90;4.30;;;;;;;;;;4994543;28;20233;-73
2023/05/25 10:05:56;;;;;;;11.47;5.13;;;;;;;;;;4994876;28;20179;-73
2023/05/25 10:09:02;;;;;;;12.73;4.70;;;;;;;;;;4995304;28;20178;-73
2023/05/25 10:12:07;;;;;;;7.93;4.47;;;;;;;;;;4994838;28;20226;-73
2023/05/25 10:15:12;;;;;;;9.23;4.00;;;;;;;;;;4994528;28;20555;-73
2023/05/25 10:18:19;;;;;;;7.17;4.50;;;;;;;;;;4994898;28;20179;-73
2023/05/25 10:21:26;;;;;;;19.47;5.03;;;;;;;;;;4982500;28;20178;-73
2023/05/25 10:24:37;;;;;;;10.27;4.10;;;;;;;;;;4982608;28;20193;-73
2023/05/25 10:27:47;;;;;;;7.57;4.03;;;;;;;;;;4982687;28;20188;-74
2023/05/25 10:30:52;;;;;;;6.80;3.73;;;;;;;;;;4982717;28;20186;-73
2023/05/25 10:33:57;;;;;;;7.90;3.43;;;;;;;;;;4982236;28;20221;-73
2023/05/25 10:37:03;;;;;;;164.47;17.63;;;;;;;;;;4993938;28;20582;-73
2023/05/25 10:40:08;;;;;;;272.93;27.33;;;;;;;;;;4994283;28;20193;-73
2023/05/25 10:43:14;;;;;;;48.27;6.43;;;;;;;;;;4981954;28;20233;-73
2023/05/25 10:46:18;;;;;;;315.00;33.17;;;;;;;;;;4994180;28;20187;-73
2023/05/25 10:49:32;;;;;;;57.10;9.13;;;;;;;;;;4982384;28;20660;-73
2023/05/25 10:52:37;;;;;;;100.03;12.33;;;;;;;;;;4981907;28;20732;-74
2023/05/25 10:55:50;;;;;;;6.10;3.63;;;;;;;;;;4993984;28;20272;-73
2023/05/25 10:58:55;;;;;;;4.33;3.43;;;;;;;;;;4993124;28;20198;-73
2023/05/25 11:02:05;;;;;;;9.97;4.30;;;;;;;;;;4982256;28;20222;-74
2023/05/25 11:05:38;;;;;;;8.80;4.03;;;;;;;;;;4993748;28;20524;-74
2023/05/25 11:09:01;;;;;;;8.03;4.10;;;;;;;;;;4993937;28;20233;-73
2023/05/25 11:12:05;;;;;;;8.37;4.00;;;;;;;;;;4993791;28;20222;-73
2023/05/25 11:15:17;;;;;;;16.13;4.90;;;;;;;;;;4993954;28;20178;-74
2023/05/25 11:18:21;;;;;;;37.70;6.07;;;;;;;;;;4993902;28;20198;-74
2023/05/25 11:21:25;;;;;;;5.97;3.30;;;;;;;;;;4993528;28;20197;-73
2023/05/25 11:24:30;;;;;;;28.85;5.32;;;;;;;;;;4982105;28;20618;-74
2023/05/25 11:27:45;;;;;;;4.88;3.17;;;;;;;;;;4993529;28;20188;-74
2023/05/25 11:30:49;;;;;;;14.23;4.13;;;;;;;;;;4982340;28;20615;-74
2023/05/25 11:33:59;;;;;;;7.38;3.58;;;;;;;;;;4993444;28;20222;-74
2023/05/25 11:37:03;;;;;;;10.82;4.75;;;;;;;;;;4981718;28;20205;-74
2023/05/25 11:40:09;;;;;;;41.97;7.15;;;;;;;;;;4993635;28;20226;-74
2023/05/25 11:43:14;;;;;;;54.40;7.75;;;;;;;;;;4993311;28;20226;-74
2023/05/25 11:46:20;;;;;;;7.38;3.53;;;;;;;;;;4993344;28;20197;-74
2023/05/25 11:49:24;;;;;;;27.00;5.45;;;;;;;;;;4981366;28;20196;-74
2023/05/25 11:52:28;;;;;;;10.18;3.63;;;;;;;;;;4993372;28;20232;-73
2023/05/25 11:55:32;;;;;;;5.13;3.40;;;;;;;;;;4981687;28;20182;-74
2023/05/25 11:58:37;;;;;;;106.25;11.75;;;;;;;;;;4993273;28;20185;-74
2023/05/25 12:01:41;;;;;;;71.10;9.50;;;;;;;;;;4981404;28;20211;-74
2023/05/25 12:05:00;;;;;;;14.73;4.28;;;;;;;;;;4993226;28;20647;-74
2023/05/25 12:08:04;;;;;;;4.72;3.20;;;;;;;;;;4993204;28;20190;-74
2023/05/25 12:11:08;;;;;;;74.63;8.98;;;;;;;;;;4997236;28;20193;-74
2023/05/25 12:14:13;;;;;;;7.13;3.03;;;;;;;;;;4984912;28;20208;-73
2023/05/25 12:17:19;;;;;;;6.40;3.22;;;;;;;;;;4997018;28;20234;-74
2023/05/25 12:20:25;;;;;;;9.35;3.88;;;;;;;;;;4996820;28;20179;-74
2023/05/25 12:23:30;;;;;;;40.28;5.47;;;;;;;;;;4996620;28;20569;-75
2023/05/25 12:26:34;;;;;;;41.17;5.85;;;;;;;;;;4984915;28;20204;-75
2023/05/25 12:29:46;;;;;;;57.33;6.90;;;;;;;;;;4985231;28;20197;-75
2023/05/25 12:32:58;;;;;;;7.35;2.90;;;;;;;;;;4996375;28;20237;-75
2023/05/25 12:36:01;;;;;;;5.50;3.08;;;;;;;;;;4984308;28;20217;-74
2023/05/25 12:39:06;;;;;;;13.25;3.63;;;;;;;;;;4996422;28;20182;-74
2023/05/25 12:42:14;;;;;;;7.72;3.20;;;;;;;;;;4973003;28;20220;-74
2023/05/25 12:45:18;;;;;;;6.60;3.13;;;;;;;;;;4996298;28;20538;-74
2023/05/25 12:48:26;;;;;;;7.15;3.30;;;;;;;;;;4996557;28;20177;-74
2023/05/25 12:51:38;;;;;;;5.80;3.30;;;;;;;;;;4996184;28;20671;-74
2023/05/25 12:54:44;;;;;;;12.73;3.60;;;;;;;;;;4996329;28;20627;-74
2023/05/25 12:57:51;;;;;;;5.60;3.00;;;;;;;;;;4995953;28;20227;-74
2023/05/25 13:00:55;;;;;;;9.90;3.08;;;;;;;;;;4996431;28;20190;-74
2023/05/25 13:03:59;;;;;;;5.25;2.90;;;;;;;;;;4996408;28;20185;-71
2023/05/25 13:07:05;;;;;;;8.65;3.40;;;;;;;;;;4983948;28;20183;-72
2023/05/25 13:10:10;;;;;;;9.65;3.22;;;;;;;;;;4996068;28;20186;-71
2023/05/25 13:13:14;;;;;;;5.03;3.00;;;;;;;;;;4995591;28;20225;-71
2023/05/25 13:16:19;;;;;;;6.75;3.10;;;;;;;;;;4995454;28;20216;-72
2023/05/25 13:19:24;;;;;;;6.50;3.10;;;;;;;;;;4995660;28;20182;-72
2023/05/25 13:22:28;;;;;;;4.75;3.05;;;;;;;;;;4995388;28;20217;-72
2023/05/25 13:25:32;;;;;;;4.22;2.90;;;;;;;;;;4995976;28;20178;-71
2023/05/25 13:28:37;;;;;;;10.25;3.03;;;;;;;;;;4995375;28;20178;-71
2023/05/25 13:31:42;;;;;;;6.28;2.78;;;;;;;;;;4995693;28;20541;-71
2023/05/25 13:34:46;;;;;;;9.45;3.42;;;;;;;;;;4983567;28;20177;-71
2023/05/25 13:37:50;;;;;;;19.08;3.55;;;;;;;;;;4995033;28;20206;-71
2023/05/25 13:40:55;;;;;;;4.70;2.92;;;;;;;;;;4995349;28;20190;-71
2023/05/25 13:43:59;;;;;;;4.95;2.90;;;;;;;;;;4972238;28;20186;-71
2023/05/25 13:47:03;;;;;;;6.35;3.33;;;;;;;;;;4994958;28;20178;-71
2023/05/25 13:50:08;;;;;;;5.28;3.33;;;;;;;;;;4961115;28;20204;-72
2023/05/25 13:53:13;;;;;;;9.32;3.22;;;;;;;;;;4994736;28;20576;-72
2023/05/25 13:56:17;;;;;;;8.02;3.20;;;;;;;;;;4994682;28;20186;-72
2023/05/25 13:59:21;;;;;;;10.15;3.53;;;;;;;;;;4971660;28;20187;-72
2023/05/25 14:02:25;;;;;;;9.98;3.33;;;;;;;;;;4982638;28;20215;-73
2023/05/25 14:05:30;;;;;;;6.38;3.72;;;;;;;;;;4994931;28;20515;-73
2023/05/25 14:08:34;;;;;;;7.22;3.50;;;;;;;;;;4995131;28;20178;-72
2023/05/25 14:11:38;;;;;;;6.15;3.05;;;;;;;;;;4982488;28;20185;-73
2023/05/25 14:14:42;;;;;;;8.70;3.30;;;;;;;;;;4982466;28;20202;-73
2023/05/25 14:17:46;;;;;;;5.28;3.17;;;;;;;;;;4982663;28;20222;-74
2023/05/25 14:20:51;;;;;;;8.77;3.65;;;;;;;;;;4982683;28;20177;-73
2023/05/25 14:23:55;;;;;;;6.47;3.13;;;;;;;;;;4982287;28;20210;-73
2023/05/25 14:27:00;;;;;;;6.80;3.05;;;;;;;;;;4994498;28;20181;-72
2023/05/25 14:30:06;;;;;;;7.82;3.30;;;;;;;;;;4982346;28;20183;-72
2023/05/25 14:33:12;;;;;;;6.95;3.50;;;;;;;;;;4994348;28;20686;-72
2023/05/25 14:36:16;;;;;;;9.23;3.67;;;;;;;;;;4994236;28;20192;-73
2023/05/25 14:39:21;;;;;;;7.43;3.42;;;;;;;;;;4994029;28;20186;-73
2023/05/25 14:42:25;;;;;;;7.15;3.80;;;;;;;;;;4993933;28;20219;-72
2023/05/25 14:45:29;;;;;;;5.13;3.25;;;;;;;;;;4994476;28;20194;-72
2023/05/25 14:48:33;;;;;;;39.65;6.68;;;;;;;;;;4993913;28;20184;-72
2023/05/25 14:51:37;;;;;;;7.95;3.53;;;;;;;;;;4981715;28;20204;-72
2023/05/25 14:54:43;;;;;;;7.93;3.38;;;;;;;;;;4994157;28;20534;-73
2023/05/25 14:57:47;;;;;;;5.45;3.10;;;;;;;;;;4994217;28;20205;-73
2023/05/25 15:00:51;;;;;;;8.95;3.67;;;;;;;;;;4994091;28;20186;-73
2023/05/25 15:03:55;;;;;;;7.15;3.63;;;;;;;;;;4981680;28;20225;-72
2023/05/25 15:07:00;;;;;;;6.00;3.35;;;;;;;;;;4993731;28;20183;-73
2023/05/25 15:10:05;;;;;;;8.10;3.45;;;;;;;;;;4982246;28;20185;-72
2023/05/25 15:13:09;;;;;;;5.68;3.70;;;;;;;;;;4993557;28;20217;-72
2023/05/25 15:16:14;;;;;;;11.98;3.38;;;;;;;;;;4981707;28;20182;-73
2023/05/25 15:19:18;;;;;;;7.13;3.30;;;;;;;;;;4982002;28;20203;-73
2023/05/25 15:22:22;;;;;;;10.23;3.97;;;;;;;;;;4993525;28;20216;-73
2023/05/25 15:25:26;;;;;;;7.68;3.38;;;;;;;;;;4993880;28;20186;-73
2023/05/25 15:28:31;;;;;;;5.13;3.40;;;;;;;;;;4993777;28;20173;-73
2023/05/25 15:31:34;;;;;;;6.22;3.50;;;;;;;;;;4993653;28;20205;-73
2023/05/25 15:34:39;;;;;;;9.15;3.55;;;;;;;;;;4993731;28;20196;-73
2023/05/25 15:37:42;;;;;;;9.15;3.90;;;;;;;;;;4993601;28;20216;-73
2023/05/25 15:40:47;;;;;;;14.27;3.95;;;;;;;;;;4993455;28;20191;-73
2023/05/25 15:43:56;;;;;;;7.63;3.25;;;;;;;;;;4993719;28;20246;-73
2023/05/25 15:47:00;;;;;;;8.98;3.58;;;;;;;;;;4997163;28;20192;-73
2023/05/25 15:50:05;;;;;;;8.60;4.32;;;;;;;;;;4974474;28;20176;-73
2023/05/25 15:53:09;;;;;;;9.27;3.70;;;;;;;;;;4985230;28;20222;-73
2023/05/25 15:56:13;;;;;;;12.63;4.22;;;;;;;;;;4985230;28;20187;-73
2023/05/25 15:59:18;;;;;;;23.92;5.97;;;;;;;;;;4997258;28;20544;-73
2023/05/25 16:02:22;;;;;;;8.80;4.20;;;;;;;;;;4997300;28;20228;-73
2023/05/25 16:05:26;;;;;;;6.07;3.93;;;;;;;;;;4985291;28;20634;-73
2023/05/25 16:08:29;;;;;;;14.17;4.43;;;;;;;;;;4984800;28;20180;-73
2023/05/25 16:11:34;;;;;;;10.97;3.70;;;;;;;;;;4996647;28;20203;-73
2023/05/25 16:14:39;;;;;;;6.47;4.00;;;;;;;;;;4973679;28;20188;-73
2023/05/25 16:17:43;;;;;;;6.20;3.63;;;;;;;;;;4996578;28;20549;-73
2023/05/25 16:20:54;;;;;;;4.77;3.47;;;;;;;;;;4996905;28;20532;-73
2023/05/25 16:23:58;;;;;;;7.60;3.57;;;;;;;;;;4997099;28;20187;-73
2023/05/25 16:27:02;;;;;;;6.33;3.57;;;;;;;;;;4996965;28;20622;-73
2023/05/25 16:30:07;;;;;;;6.57;3.90;;;;;;;;;;4996365;28;20201;-73
2023/05/25 16:33:11;;;;;;;11.00;3.47;;;;;;;;;;4984372;28;20219;-73
2023/05/25 16:36:15;;;;;;;5.40;3.47;;;;;;;;;;4996703;28;20661;-73
2023/05/25 16:39:20;;;;;;;6.57;3.50;;;;;;;;;;4996509;28;20196;-73
2023/05/25 16:42:25;;;;;;;8.47;4.23;;;;;;;;;;4996272;28;20220;-73
2023/05/25 16:45:29;;;;;;;7.00;3.57;;;;;;;;;;4984211;28;20183;-73
2023/05/25 16:48:33;;;;;;;8.57;4.03;;;;;;;;;;4996349;28;20175;-73
2023/05/25 16:51:37;;;;;;;30.57;6.03;;;;;;;;;;4995827;28;20207;-73
2023/05/25 16:54:42;;;;;;;8.93;3.83;;;;;;;;;;4996141;28;20213;-72
2023/05/25 16:57:46;;;;;;;6.37;3.47;;;;;;;;;;4995476;28;20227;-73
2023/05/25 17:00:50;;;;;;;6.57;3.50;;;;;;;;;;4972722;28;20197;-73
2023/05/25 17:03:54;;;;;;;5.57;3.40;;;;;;;;;;4983784;28;20215;-73
2023/05/25 17:06:58;;;;;;;12.30;3.73;;;;;;;;;;4972657;28;20188;-73
2023/05/25 17:10:03;;;;;;;5.23;3.43;;;;;;;;;;4995933;28;20531;-73
2023/05/25 17:13:07;;;;;;;7.43;3.30;;;;;;;;;;4983594;28;20218;-72
2023/05/25 17:16:11;;;;;;;10.73;3.83;;;;;;;;;;4996393;28;20625;-73
2023/05/25 17:19:15;;;;;;;15.80;4.83;;;;;;;;;;4983511;28;20208;-73
2023/05/25 17:22:19;;;;;;;6.77;3.97;;;;;;;;;;4995524;28;20566;-73
2023/05/25 17:25:23;;;;;;;8.17;3.73;;;;;;;;;;4995617;28;20174;-72
2023/05/25 17:28:27;;;;;;;8.53;4.40;;;;;;;;;;4995405;28;20174;-73
2023/05/25 17:31:31;;;;;;;9.23;3.70;;;;;;;;;;4983562;28;20197;-72
2023/05/25 17:34:36;;;;;;;6.70;3.73;;;;;;;;;;4983137;28;20203;-73
2023/05/25 17:37:40;;;;;;;6.73;3.70;;;;;;;;;;4995050;28;20226;-73
2023/05/25 17:40:44;;;;;;;7.20;3.43;;;;;;;;;;4995583;28;20178;-73
2023/05/25 17:43:49;;;;;;;9.93;4.47;;;;;;;;;;4994998;28;20217;-73
2023/05/25 17:46:53;;;;;;;8.17;3.83;;;;;;;;;;4995253;28;20182;-73
2023/05/25 17:49:57;;;;;;;9.37;3.93;;;;;;;;;;4972170;28;20522;-73
2023/05/25 17:53:02;;;;;;;8.00;4.03;;;;;;;;;;4994780;28;20218;-73
2023/05/25 17:56:06;;;;;;;15.20;4.20;;;;;;;;;;4994856;28;20178;-73
2023/05/25 17:59:10;;;;;;;15.47;4.27;;;;;;;;;;4982884;28;20599;-73
2023/05/25 18:02:15;;;;;;;11.33;4.10;;;;;;;;;;4995006;28;20589;-74
2023/05/25 18:05:19;;;;;;;6.53;3.40;;;;;;;;;;4994841;28;20545;-72
2023/05/25 18:08:23;;;;;;;7.67;3.80;;;;;;;;;;4982575;28;20511;-73
2023/05/25 18:11:28;;;;;;;7.20;4.10;;;;;;;;;;4982795;28;20631;-73
2023/05/25 18:14:36;;;;;;;9.70;4.07;;;;;;;;;;4983071;28;20182;-73
2023/05/25 18:17:40;;;;;;;9.20;4.03;;;;;;;;;;4994886;28;20178;-73
2023/05/25 18:20:44;;;;;;;5.70;3.60;;;;;;;;;;4971749;28;20182;-73
2023/05/25 18:23:48;;;;;;;8.30;3.87;;;;;;;;;;4982238;28;20213;-73